Time;durP1;ratioP1;P1;durP2;ratioP2;P2;SDS_P1;SDS_P2;PMS_P1;PMS_P2;Temp;Humidity;BMP_temperature;BMP_pressure;BME280_temperature;BME280_humidity;BME280_pressure;Samples;Min_cycle;Max_cycle;Signal;HPM_P1;HPM_P2
2023/10/29 00:00:12;;;;;;;2.22;1.40;;;;;;;16.79;79.06;98941.47;5053754;28;20043;-50
2023/10/29 00:02:38;;;;;;;1.85;1.27;;;;;;;16.86;78.94;98935.03;5052868;28;20128;-46
2023/10/29 00:05:07;;;;;;;3.55;1.35;;;;;;;16.89;78.72;98916.47;5053139;28;20048;-44
2023/10/29 00:07:32;;;;;;;4.30;1.40;;;;;;;16.90;78.47;98933.09;5052970;28;20033;-47
2023/10/29 00:09:58;;;;;;;3.03;1.40;;;;;;;16.86;78.95;98921.84;5052627;28;20033;-44
2023/10/29 00:12:23;;;;;;;4.90;1.30;;;;;;;16.88;79.86;98914.75;5051358;28;20117;-45
2023/10/29 00:14:48;;;;;;;2.63;1.35;;;;;;;16.72;79.68;98910.19;5051438;28;20094;-45
2023/10/29 00:17:14;;;;;;;2.25;1.17;;;;;;;16.66;80.38;98905.19;5051888;28;20033;-45
2023/10/29 00:19:39;;;;;;;4.07;1.20;;;;;;;16.69;79.07;98905.09;5052711;28;20040;-46
2023/10/29 00:22:05;;;;;;;2.50;1.00;;;;;;;16.83;79.32;98897.47;5052972;28;20082;-50
2023/10/29 00:24:30;;;;;;;4.00;1.17;;;;;;;17.06;78.99;98905.19;5053124;28;20619;-46
2023/10/29 00:26:55;;;;;;;2.35;1.10;;;;;;;17.12;78.85;98883.88;5051966;28;20748;-48
2023/10/29 00:29:21;;;;;;;2.92;1.23;;;;;;;17.08;78.56;98886.72;5052585;28;20085;-46
2023/10/29 00:31:46;;;;;;;2.72;1.05;;;;;;;16.97;78.76;98884.53;5052190;28;20037;-47
2023/10/29 00:34:12;;;;;;;3.00;1.10;;;;;;;17.21;77.69;98890.47;5052721;28;20037;-44
2023/10/29 00:36:37;;;;;;;3.28;1.35;;;;;;;17.09;78.50;98886.63;5051944;28;20103;-46
2023/10/29 00:39:03;;;;;;;2.10;1.13;;;;;;;17.13;77.48;98879.47;5052738;28;20498;-43
2023/10/29 00:41:29;;;;;;;3.92;1.13;;;;;;;17.22;76.71;98877.25;5051464;28;20037;-50
2023/10/29 00:43:54;;;;;;;4.13;1.02;;;;;;;17.17;76.65;98881.03;5051069;28;20060;-47
2023/10/29 00:46:20;;;;;;;2.60;1.05;;;;;;;17.43;75.62;98876.28;5052334;28;20122;-47
2023/10/29 00:48:46;;;;;;;3.17;0.98;;;;;;;17.32;76.68;98877.72;5052031;28;20033;-47
2023/10/29 00:51:11;;;;;;;2.42;0.90;;;;;;;17.39;76.56;98873.84;5052290;28;20091;-47
2023/10/29 00:53:37;;;;;;;2.78;1.00;;;;;;;17.43;75.39;98878.06;5051828;28;20120;-47
2023/10/29 00:56:04;;;;;;;2.45;0.98;;;;;;;17.74;74.21;98865.19;5052036;28;20040;-46
2023/10/29 00:58:30;;;;;;;2.13;0.80;;;;;;;17.52;74.65;98859.19;5050655;28;20075;-47
2023/10/29 01:00:55;;;;;;;2.70;0.90;;;;;;;17.52;74.45;98861.81;5051958;28;20040;-45
2023/10/29 01:03:21;;;;;;;2.60;1.02;;;;;;;17.69;74.47;98869.81;5051867;28;20353;-47
2023/10/29 01:05:48;;;;;;;2.15;0.82;;;;;;;17.54;75.12;98856.47;5051560;28;20079;-46
2023/10/29 01:08:14;;;;;;;3.58;1.00;;;;;;;17.68;74.12;98849.69;5051630;28;20037;-47
2023/10/29 01:10:39;;;;;;;2.88;0.90;;;;;;;17.63;74.86;98851.66;5050709;28;20416;-45
2023/10/29 01:13:05;;;;;;;2.83;1.10;;;;;;;17.57;74.57;98854.53;5051865;28;20116;-48
2023/10/29 01:15:30;;;;;;;1.48;0.82;;;;;;;17.40;75.38;98857.13;5051783;28;20045;-46
2023/10/29 01:17:55;;;;;;;3.03;0.90;;;;;;;17.49;75.41;98863.75;5051148;28;20128;-47
2023/10/29 01:20:21;;;;;;;3.28;0.90;;;;;;;17.71;74.32;98852.16;5050404;28;20124;-50
2023/10/29 01:22:47;;;;;;;3.03;0.90;;;;;;;17.57;75.13;98848.41;5050911;28;20089;-45
2023/10/29 01:25:13;;;;;;;2.45;0.90;;;;;;;17.54;74.96;98844.16;5051386;28;20048;-45
2023/10/29 01:27:38;;;;;;;2.35;0.90;;;;;;;17.59;74.54;98828.13;5050913;28;20033;-44
2023/10/29 01:30:07;;;;;;;3.88;0.90;;;;;;;17.71;74.11;98836.34;5051360;28;20046;-44
2023/10/29 01:32:33;;;;;;;2.10;0.90;;;;;;;17.68;74.41;98830.38;5051869;28;20037;-45
2023/10/29 01:34:58;;;;;;;2.63;0.90;;;;;;;17.49;75.18;98811.06;5049604;28;20087;-45
2023/10/29 01:37:24;;;;;;;1.75;0.80;;;;;;;17.49;74.87;98814.56;5051840;28;20090;-49
2023/10/29 01:39:49;;;;;;;3.03;1.10;;;;;;;17.22;76.12;98821.09;5052842;28;20385;-50
2023/10/29 01:42:15;;;;;;;3.25;1.00;;;;;;;17.33;75.65;98806.50;5053134;28;20675;-46
2023/10/29 01:44:40;;;;;;;2.35;0.80;;;;;;;17.33;75.66;98801.22;5051190;28;20048;-45
2023/10/29 01:47:05;;;;;;;2.45;0.90;;;;;;;17.51;74.66;98803.91;5053486;28;20044;-44
2023/10/29 01:49:31;;;;;;;2.42;0.80;;;;;;;17.31;75.23;98800.47;5053445;28;20060;-44
2023/10/29 01:51:57;;;;;;;2.42;0.85;;;;;;;17.22;75.24;98813.19;5050372;28;20111;-45
2023/10/29 01:54:22;;;;;;;1.52;0.70;;;;;;;17.14;75.42;98818.81;5051017;28;20150;-45
2023/10/29 01:56:48;;;;;;;2.50;0.70;;;;;;;17.33;74.09;98806.50;5050495;28;20037;-44
2023/10/29 01:59:14;;;;;;;2.50;0.70;;;;;;;17.23;75.00;98814.91;5051077;28;20037;-46
2023/10/29 02:01:40;;;;;;;2.08;0.90;;;;;;;17.41;73.77;98809.63;5050319;28;20037;-45
2023/10/29 02:04:09;;;;;;;2.10;0.85;;;;;;;17.30;73.79;98813.72;5050938;28;20387;-47
2023/10/29 02:06:39;;;;;;;3.25;0.70;;;;;;;17.36;72.39;98832.72;5050734;28;20494;-48
2023/10/29 02:09:08;;;;;;;1.83;0.60;;;;;;;17.20;71.44;98855.38;5050193;28;20135;-44
2023/10/29 02:11:38;;;;;;;3.38;0.70;;;;;;;16.85;71.75;98842.97;5050729;28;20112;-47
2023/10/29 02:14:04;;;;;;;2.13;0.77;;;;;;;17.17;69.89;98823.94;5050579;28;20033;-47
2023/10/29 02:16:29;;;;;;;2.20;0.50;;;;;;;17.08;68.24;98808.56;5050576;28;20033;-47
2023/10/29 02:18:55;;;;;;;2.47;0.60;;;;;;;17.08;66.82;98808.56;5050433;28;20083;-47
2023/10/29 02:21:23;;;;;;;4.28;0.70;;;;;;;17.04;66.70;98794.69;5050247;28;20511;-50
2023/10/29 02:23:49;;;;;;;2.78;0.50;;;;;;;16.98;66.67;98789.72;5050013;28;20087;-45
2023/10/29 02:26:14;;;;;;;1.17;0.50;;;;;;;16.75;67.53;98776.75;5051042;28;20041;-46
2023/10/29 02:28:40;;;;;;;2.33;0.40;;;;;;;16.74;66.76;98803.13;5050303;28;20036;-44
2023/10/29 02:31:05;;;;;;;2.78;0.47;;;;;;;16.58;67.50;98816.06;5051085;28;20569;-44
2023/10/29 02:33:30;;;;;;;2.08;0.40;;;;;;;16.38;67.67;98839.72;5050730;28;20065;-46
2023/10/29 02:35:56;;;;;;;1.30;0.40;;;;;;;16.28;67.52;98820.03;5050450;28;20087;-45
2023/10/29 02:38:23;;;;;;;1.23;0.40;;;;;;;16.24;68.45;98824.53;5049343;28;20049;-44
2023/10/29 02:40:48;;;;;;;0.88;0.28;;;;;;;16.37;67.31;98811.72;5050729;28;20041;-44
2023/10/29 02:43:13;;;;;;;1.65;0.40;;;;;;;16.42;66.87;98817.63;5051461;28;20041;-46
2023/10/29 02:45:40;;;;;;;2.63;0.55;;;;;;;16.30;67.22;98818.16;5051350;28;20636;-45
2023/10/29 02:48:05;;;;;;;3.05;0.50;;;;;;;16.18;67.21;98823.03;5050790;28;20089;-45
2023/10/29 02:50:30;;;;;;;4.20;0.40;;;;;;;16.15;67.46;98819.69;5051570;28;20100;-46
2023/10/29 02:52:56;;;;;;;2.17;0.32;;;;;;;16.26;67.01;98824.47;5050701;28;20037;-45
2023/10/29 02:55:21;;;;;;;1.25;0.50;;;;;;;15.87;68.32;98825.19;5051360;28;20056;-49
2023/10/29 02:57:46;;;;;;;2.25;0.50;;;;;;;15.84;68.08;98825.34;5051391;28;20033;-44
2023/10/29 03:00:12;;;;;;;1.25;0.40;;;;;;;16.15;67.54;98812.66;5056831;28;20039;-46
2023/10/29 03:02:38;;;;;;;3.30;0.60;;;;;;;15.98;68.57;98819.53;5051193;28;20045;-48
2023/10/29 03:05:04;;;;;;;1.00;0.50;;;;;;;15.92;69.47;98822.41;5049230;28;20095;-45
2023/10/29 03:07:30;;;;;;;1.45;0.60;;;;;;;15.51;71.78;98816.13;5049989;28;20061;-46
2023/10/29 03:09:56;;;;;;;2.55;0.60;;;;;;;15.80;71.21;98827.22;5048949;28;20036;-48
2023/10/29 03:12:21;;;;;;;2.25;0.68;;;;;;;15.78;72.33;98821.19;5049954;28;20055;-43
2023/10/29 03:14:46;;;;;;;1.52;0.65;;;;;;;15.87;72.15;98830.44;5049339;28;20056;-46
2023/10/29 03:17:12;;;;;;;2.72;0.77;;;;;;;16.05;72.52;98818.31;5050044;28;20127;-47
2023/10/29 03:19:37;;;;;;;2.28;0.80;;;;;;;16.08;72.51;98832.22;5052614;28;20100;-43
2023/10/29 03:22:03;;;;;;;1.23;0.60;;;;;;;16.33;72.39;98818.91;5053452;28;20124;-44
2023/10/29 03:24:29;;;;;;;1.88;0.80;;;;;;;16.41;72.37;98824.66;5052699;28;20101;-44
2023/10/29 03:26:54;;;;;;;3.13;0.60;;;;;;;16.42;72.32;98822.91;5050929;28;20503;-46
2023/10/29 03:29:20;;;;;;;3.50;0.60;;;;;;;16.76;71.21;98828.44;5049239;28;20384;-45
2023/10/29 03:31:45;;;;;;;2.38;0.60;;;;;;;16.57;71.68;98822.25;5050209;28;20029;-46
2023/10/29 03:34:12;;;;;;;1.33;0.60;;;;;;;16.66;71.49;98816.59;5055699;28;20508;-45
2023/10/29 03:36:38;;;;;;;2.95;1.00;;;;;;;16.73;70.80;98825.09;5055719;28;20059;-46
2023/10/29 03:39:03;;;;;;;1.50;0.52;;;;;;;16.65;71.60;98822.78;5056556;28;20459;-50
2023/10/29 03:41:28;;;;;;;2.83;0.60;;;;;;;16.57;71.32;98815.22;5056386;28;20078;-45
2023/10/29 03:43:54;;;;;;;1.63;0.68;;;;;;;16.74;71.06;98830.28;5062637;28;20032;-50
2023/10/29 03:46:19;;;;;;;1.58;0.57;;;;;;;16.89;69.73;98823.50;5063507;28;20044;-51
2023/10/29 03:48:44;;;;;;;2.78;0.70;;;;;;;16.63;70.75;98828.13;5057226;28;20167;-46
2023/10/29 03:51:13;;;;;;;2.30;0.70;;;;;;;16.86;70.12;98832.38;5056137;28;20119;-47
2023/10/29 03:53:38;;;;;;;2.90;0.70;;;;;;;16.62;70.76;98825.56;5055584;28;20033;-45
2023/10/29 03:56:04;;;;;;;1.88;0.68;;;;;;;16.91;70.25;98840.91;5055763;28;20491;-51
2023/10/29 03:58:30;;;;;;;4.22;0.65;;;;;;;16.94;69.34;98843.44;5056188;28;20036;-52
2023/10/29 04:00:56;;;;;;;3.65;0.70;;;;;;;17.00;69.70;98843.16;5055636;28;20075;-47
2023/10/29 04:03:21;;;;;;;2.60;0.65;;;;;;;16.90;69.62;98855.00;5056050;28;20144;-47
2023/10/29 04:05:47;;;;;;;6.05;0.80;;;;;;;16.65;72.44;98904.34;5055315;28;20547;-46
2023/10/29 04:08:12;;;;;;;3.72;0.80;;;;;;;16.27;77.45;98932.22;5056003;28;20047;-49
2023/10/29 04:10:37;;;;;;;2.60;0.70;;;;;;;16.19;75.99;98929.91;5055500;28;20051;-45
2023/10/29 04:13:03;;;;;;;4.13;0.70;;;;;;;15.87;74.90;98911.91;5056032;28;20033;-45
2023/10/29 04:15:28;;;;;;;4.55;0.60;;;;;;;15.85;74.18;98907.66;5055867;28;20461;-45
2023/10/29 04:17:53;;;;;;;4.15;0.55;;;;;;;15.67;73.78;98896.94;5054988;28;20063;-46
2023/10/29 04:20:18;;;;;;;0.77;0.30;;;;;;;15.43;72.93;98889.94;5056005;28;20037;-46
2023/10/29 04:22:44;;;;;;;3.60;0.50;;;;;;;15.45;72.98;98875.00;5055306;28;20041;-46
2023/10/29 04:25:09;;;;;;;2.92;0.85;;;;;;;15.28;73.35;98894.00;5055720;28;20060;-45
2023/10/29 04:27:35;;;;;;;1.35;0.50;;;;;;;15.33;73.55;98883.34;5059181;28;20086;-48
2023/10/29 04:30:00;;;;;;;1.45;0.50;;;;;;;15.29;73.76;98894.88;5059008;28;20041;-48
2023/10/29 04:32:25;;;;;;;1.10;0.60;;;;;;;15.23;74.76;98893.34;5056224;28;20051;-50
2023/10/29 04:34:51;;;;;;;1.40;0.57;;;;;;;15.32;74.34;98913.97;5055163;28;20056;-41
2023/10/29 04:37:16;;;;;;;1.55;0.50;;;;;;;15.05;75.48;98906.25;5054236;28;20045;-47
2023/10/29 04:39:42;;;;;;;1.20;0.60;;;;;;;15.28;75.38;98901.03;5055220;28;20071;-51
2023/10/29 04:42:08;;;;;;;3.70;0.68;;;;;;;15.27;76.60;98907.19;5054212;28;20147;-45
2023/10/29 04:44:33;;;;;;;1.80;0.57;;;;;;;15.32;76.01;98900.00;5052970;28;20491;-46
2023/10/29 04:46:59;;;;;;;1.88;0.50;;;;;;;15.37;76.62;98903.31;5051678;28;20029;-46
2023/10/29 04:49:26;;;;;;;3.75;0.70;;;;;;;15.40;76.86;98896.19;5052422;28;20406;-49
2023/10/29 04:51:51;;;;;;;2.63;0.70;;;;;;;15.32;77.15;98913.13;5052208;28;20033;-45
2023/10/29 04:54:16;;;;;;;2.58;0.82;;;;;;;15.55;76.85;98910.53;5052518;28;20029;-47
2023/10/29 04:56:42;;;;;;;4.22;0.88;;;;;;;15.14;78.22;98906.78;5051489;28;20029;-44
2023/10/29 04:59:07;;;;;;;2.92;0.80;;;;;;;15.41;77.31;98903.16;5052360;28;20033;-45
2023/10/29 05:01:33;;;;;;;5.45;0.70;;;;;;;15.38;77.28;98892.75;5050688;28;20055;-48
2023/10/29 05:03:58;;;;;;;2.03;0.70;;;;;;;15.33;77.07;98907.81;5051838;28;20128;-45
2023/10/29 05:06:24;;;;;;;4.20;0.90;;;;;;;15.39;76.23;98899.72;5050985;28;20036;-46
2023/10/29 05:08:49;;;;;;;2.95;0.68;;;;;;;15.32;75.90;98894.75;5052030;28;20059;-49
2023/10/29 05:11:15;;;;;;;5.13;0.80;;;;;;;15.66;74.89;98897.00;5052300;28;20037;-46
2023/10/29 05:13:41;;;;;;;4.32;0.80;;;;;;;15.46;75.26;98902.09;5051388;28;20094;-47
2023/10/29 05:16:06;;;;;;;3.00;0.70;;;;;;;15.40;75.33;98906.69;5052316;28;20029;-47
2023/10/29 05:18:32;;;;;;;4.38;0.82;;;;;;;15.65;74.52;98904.03;5051844;28;20033;-47
2023/10/29 05:20:57;;;;;;;3.47;0.73;;;;;;;15.49;75.37;98915.97;5051671;28;20040;-45
2023/10/29 05:23:22;;;;;;;4.85;0.80;;;;;;;15.47;74.96;98912.56;5052022;28;20048;-46
2023/10/29 05:25:48;;;;;;;3.63;0.70;;;;;;;15.45;75.59;98911.75;5051449;28;20135;-46
2023/10/29 05:28:13;;;;;;;4.60;0.90;;;;;;;15.28;75.83;98928.13;5052232;28;20426;-48
2023/10/29 05:30:39;;;;;;;4.13;0.90;;;;;;;15.29;76.02;98929.00;5051108;28;20546;-46
2023/10/29 05:33:05;;;;;;;3.80;0.73;;;;;;;15.37;75.42;98933.03;5052068;28;20098;-50
2023/10/29 05:35:30;;;;;;;3.67;1.00;;;;;;;15.19;75.85;98945.97;5051739;28;20063;-44
2023/10/29 05:37:55;;;;;;;2.92;0.63;;;;;;;15.32;75.43;98955.13;5051315;28;20153;-45
2023/10/29 05:40:20;;;;;;;3.83;0.77;;;;;;;15.34;75.22;98958.56;5052232;28;20116;-47
2023/10/29 05:42:46;;;;;;;5.65;0.77;;;;;;;15.33;75.43;98959.47;5051374;28;20033;-46
2023/10/29 05:45:11;;;;;;;5.40;0.73;;;;;;;15.36;75.09;98970.75;5052119;28;20041;-45
2023/10/29 05:47:36;;;;;;;4.43;0.88;;;;;;;15.35;74.56;98976.03;5051893;28;20037;-48
2023/10/29 05:50:04;;;;;;;5.10;1.00;;;;;;;15.23;74.96;98969.47;5054189;28;20036;-49
2023/10/29 05:52:30;;;;;;;6.15;0.88;;;;;;;15.21;75.17;98971.28;5054543;28;20044;-44
2023/10/29 05:54:55;;;;;;;5.00;0.80;;;;;;;15.22;74.75;98974.75;5052862;28;20495;-45
2023/10/29 05:57:21;;;;;;;6.28;0.88;;;;;;;15.48;73.38;98976.44;5055772;28;20040;-50
2023/10/29 05:59:46;;;;;;;6.32;0.98;;;;;;;15.35;73.57;98976.91;5058777;28;20056;-47
2023/10/29 06:02:12;;;;;;;6.45;0.90;;;;;;;15.15;74.45;98963.63;5052765;28;20120;-46
2023/10/29 06:04:37;;;;;;;6.07;0.80;;;;;;;14.87;74.48;98984.72;5049242;28;20072;-47
2023/10/29 06:07:02;;;;;;;7.63;0.90;;;;;;;15.37;73.64;98982.06;5050599;28;20037;-44
2023/10/29 06:09:28;;;;;;;6.32;1.10;;;;;;;15.31;73.27;98984.91;5049562;28;20033;-48
2023/10/29 06:11:53;;;;;;;2.97;0.85;;;;;;;15.43;72.89;98982.72;5050232;28;20090;-44
2023/10/29 06:14:18;;;;;;;4.78;0.80;;;;;;;15.28;73.47;98979.78;5050691;28;20112;-44
2023/10/29 06:16:44;;;;;;;7.63;0.90;;;;;;;15.34;72.99;98990.06;5049960;28;20048;-46
2023/10/29 06:19:09;;;;;;;7.15;1.02;;;;;;;15.24;73.19;98997.44;5050834;28;20578;-46
2023/10/29 06:21:35;;;;;;;4.40;0.90;;;;;;;15.32;73.29;98990.13;5050487;28;20041;-45
2023/10/29 06:24:00;;;;;;;5.35;0.90;;;;;;;15.08;73.48;98987.50;5050366;28;20040;-45
2023/10/29 06:26:26;;;;;;;5.80;0.80;;;;;;;15.23;73.04;98987.84;5072111;22;20098;-72
2023/10/29 06:28:52;;;;;;;5.63;0.90;;;;;;;15.24;72.64;98986.94;5068056;28;20075;-73
2023/10/29 06:31:28;;;;;;;5.82;0.88;;;;;;;15.27;72.60;99013.06;5069481;28;20060;-73
2023/10/29 06:33:53;;;;;;;6.63;1.00;;;;;;;15.28;71.83;99020.03;5070372;28;20496;-73
2023/10/29 06:36:21;;;;;;;5.72;1.00;;;;;;;15.16;72.53;99030.09;5070580;28;20128;-73
2023/10/29 06:38:46;;;;;;;3.92;0.90;;;;;;;15.41;71.90;99036.22;5069160;28;20029;-73
2023/10/29 06:41:15;;;;;;;7.47;0.93;;;;;;;15.43;71.09;99055.38;5070662;28;20037;-73
2023/10/29 06:43:43;;;;;;;6.05;1.10;;;;;;;15.17;72.67;99069.44;5070005;28;20041;-73
2023/10/29 06:46:18;;;;;;;4.05;0.82;;;;;;;15.48;71.54;99071.00;5070381;28;20037;-74
2023/10/29 06:48:43;;;;;;;4.80;0.90;;;;;;;15.10;73.14;99072.31;5070043;28;20035;-74
2023/10/29 06:51:10;;;;;;;6.75;0.95;;;;;;;15.21;72.38;99075.41;5070666;28;20028;-72
2023/10/29 06:53:36;;;;;;;6.22;0.95;;;;;;;15.43;71.20;99097.38;5070291;28;20036;-73
2023/10/29 06:56:02;;;;;;;3.65;0.95;;;;;;;15.50;71.32;99093.66;5068549;28;20033;-74
2023/10/29 06:58:28;;;;;;;5.00;0.98;;;;;;;15.46;71.54;99104.31;5070513;28;20570;-74
2023/10/29 07:01:08;;;;;;;4.50;0.98;;;;;;;15.71;71.11;99108.69;5070101;28;20043;-73
2023/10/29 07:03:34;;;;;;;4.78;1.08;;;;;;;15.79;71.01;99108.44;5070355;28;20033;-74
2023/10/29 07:06:05;;;;;;;3.88;1.00;;;;;;;15.48;71.67;99118.25;5069245;28;20036;-74
2023/10/29 07:08:32;;;;;;;3.15;0.80;;;;;;;15.58;70.89;99103.94;5069925;28;20460;-74
2023/10/29 07:11:16;;;;;;;3.20;0.80;;;;;;;15.43;71.72;99126.28;5070030;28;20029;-74
2023/10/29 07:13:44;;;;;;;6.13;0.90;;;;;;;15.82;70.71;99130.19;5069843;28;20404;-74
2023/10/29 07:16:16;;;;;;;5.63;0.90;;;;;;;15.59;71.25;99130.16;5070185;28;20131;-73
2023/10/29 07:18:41;;;;;;;4.03;0.90;;;;;;;15.85;70.58;99138.88;5069647;28;20459;-74
2023/10/29 07:21:07;;;;;;;6.18;0.90;;;;;;;16.06;69.91;99152.09;5070290;28;20063;-74
2023/10/29 07:23:32;;;;;;;4.57;1.15;;;;;;;15.93;70.30;99145.56;5070536;28;20029;-73
2023/10/29 07:25:57;;;;;;;4.47;0.90;;;;;;;15.91;70.22;99150.03;5069478;28;20481;-73
2023/10/29 07:28:23;;;;;;;5.68;1.33;;;;;;;15.89;69.50;99125.56;5070808;28;20048;-74
2023/10/29 07:30:49;;;;;;;3.15;0.82;;;;;;;15.86;70.14;99140.59;5070259;28;20035;-74
2023/10/29 07:33:20;;;;;;;7.88;1.10;;;;;;;15.74;70.58;99155.88;5070242;28;20037;-74
2023/10/29 07:35:46;;;;;;;5.13;0.93;;;;;;;15.95;69.56;99156.03;5069709;28;20436;-74
2023/10/29 07:38:14;;;;;;;4.88;0.98;;;;;;;15.71;70.30;99165.63;5070244;28;20091;-74
2023/10/29 07:40:45;;;;;;;5.88;0.90;;;;;;;15.88;69.61;99168.53;5070890;28;20033;-73
2023/10/29 07:43:10;;;;;;;4.53;1.08;;;;;;;15.56;70.08;99159.13;5070609;28;20033;-73
2023/10/29 07:45:35;;;;;;;3.92;1.20;;;;;;;15.63;69.99;99160.63;5070383;28;20110;-73
2023/10/29 07:48:04;;;;;;;6.93;1.00;;;;;;;15.64;69.57;99146.59;5071360;28;20036;-74
2023/10/29 07:50:29;;;;;;;4.53;0.88;;;;;;;15.91;68.53;99163.19;5070137;28;20036;-74
2023/10/29 07:52:57;;;;;;;3.90;0.77;;;;;;;15.82;69.33;99158.25;5068986;28;20032;-74
2023/10/29 07:55:23;;;;;;;4.15;1.10;;;;;;;15.86;69.34;99180.03;5069472;28;20041;-74
2023/10/29 07:57:48;;;;;;;5.35;1.20;;;;;;;15.68;68.93;99177.09;5068217;28;20146;-74
2023/10/29 08:00:14;;;;;;;4.65;0.88;;;;;;;16.19;67.73;99182.31;5068410;28;20507;-74
2023/10/29 08:02:40;;;;;;;4.03;0.80;;;;;;;15.99;67.21;99186.53;5067499;28;20028;-74
2023/10/29 08:05:12;;;;;;;2.95;0.80;;;;;;;15.87;67.46;99206.22;5069652;28;20032;-74
2023/10/29 08:07:39;;;;;;;3.70;0.88;;;;;;;15.83;66.85;99216.00;5069782;28;20036;-74
2023/10/29 08:10:08;;;;;;;6.32;0.90;;;;;;;15.78;67.10;99210.06;5069149;28;20115;-72
2023/10/29 08:12:34;;;;;;;5.28;0.90;;;;;;;15.58;68.02;99212.47;5069529;28;20060;-73
2023/10/29 08:15:00;;;;;;;3.63;0.77;;;;;;;15.39;68.62;99230.56;5069194;28;20032;-73
2023/10/29 08:17:29;;;;;;;7.65;0.88;;;;;;;15.55;67.56;99215.22;5069505;28;20040;-73
2023/10/29 08:19:54;;;;;;;3.75;0.80;;;;;;;15.57;67.60;99225.66;5071180;28;20058;-75
2023/10/29 08:22:22;;;;;;;3.97;0.90;;;;;;;15.82;66.96;99216.03;5073518;28;20123;-76
2023/10/29 08:24:56;;;;;;;4.22;0.82;;;;;;;16.17;65.42;99227.94;5085663;28;20447;-73
2023/10/29 08:27:21;;;;;;;3.57;0.90;;;;;;;16.05;65.79;99233.63;5087434;28;20055;-73
2023/10/29 08:29:48;;;;;;;4.30;1.00;;;;;;;16.11;66.01;99225.53;5088366;28;20032;-73
2023/10/29 08:32:17;;;;;;;4.10;0.70;;;;;;;16.39;64.65;99228.06;5074480;28;20362;-73
2023/10/29 08:34:45;;;;;;;6.88;0.90;;;;;;;16.33;64.72;99228.28;5071434;28;20539;-75
2023/10/29 08:37:17;;;;;;;5.50;0.90;;;;;;;16.31;64.66;99227.47;5071615;28;20493;-73
2023/10/29 08:39:42;;;;;;;4.45;1.00;;;;;;;16.42;64.10;99235.81;5072684;28;20040;-72
2023/10/29 08:42:17;;;;;;;4.38;1.00;;;;;;;16.44;64.41;99241.91;5071559;28;20116;-73
2023/10/29 08:44:42;;;;;;;6.95;1.10;;;;;;;16.58;64.54;99247.53;5071064;28;20459;-74
2023/10/29 08:47:07;;;;;;;5.72;0.98;;;;;;;16.18;64.87;99264.72;5072026;28;20044;-74
2023/10/29 08:49:33;;;;;;;4.00;0.85;;;;;;;16.29;65.29;99256.44;5071871;28;20041;-74
2023/10/29 08:51:58;;;;;;;2.50;0.80;;;;;;;16.46;64.42;99279.53;5072920;28;20088;-74
2023/10/29 08:54:23;;;;;;;8.05;1.05;;;;;;;16.11;65.07;99271.09;5071586;28;20028;-74
2023/10/29 08:56:49;;;;;;;5.22;0.98;;;;;;;16.17;65.25;99283.16;5071966;28;20032;-74
2023/10/29 08:59:14;;;;;;;7.22;1.10;;;;;;;16.24;65.58;99289.94;5071261;28;20149;-75
2023/10/29 09:01:40;;;;;;;5.13;0.90;;;;;;;16.49;64.67;99303.09;5070789;28;20106;-75
2023/10/29 09:04:10;;;;;;;4.47;0.80;;;;;;;16.35;63.28;99293.03;5071438;28;20033;-76
2023/10/29 09:06:35;;;;;;;4.53;1.20;;;;;;;16.70;62.92;99289.19;5072259;28;20503;-75
2023/10/29 09:09:13;;;;;;;4.97;0.93;;;;;;;16.55;63.36;99305.50;5072107;28;20025;-73
2023/10/29 09:11:38;;;;;;;4.13;0.90;;;;;;;16.49;62.39;99313.59;5072074;28;20389;-74
2023/10/29 09:14:04;;;;;;;4.97;0.90;;;;;;;16.58;61.88;99308.03;5072449;28;20025;-73
2023/10/29 09:16:40;;;;;;;5.68;0.90;;;;;;;16.43;63.44;99305.94;5070847;28;20067;-75
2023/10/29 09:19:08;;;;;;;4.78;1.00;;;;;;;16.76;61.33;99306.53;5072136;28;20115;-75
2023/10/29 09:21:36;;;;;;;6.20;1.00;;;;;;;16.18;62.76;99304.16;5072388;28;20041;-74
2023/10/29 09:24:02;;;;;;;7.30;1.10;;;;;;;16.80;60.99;99298.47;5071258;28;20044;-75
2023/10/29 09:26:31;;;;;;;5.47;1.10;;;;;;;16.74;61.51;99300.47;5070627;28;20157;-74
2023/10/29 09:29:03;;;;;;;8.60;1.10;;;;;;;17.09;59.70;99304.41;5071881;28;20086;-75
2023/10/29 09:31:29;;;;;;;5.07;0.77;;;;;;;16.93;59.83;99315.53;5071634;28;20043;-75
2023/10/29 09:33:54;;;;;;;7.60;1.20;;;;;;;16.95;59.65;99312.84;5071512;28;20062;-75
2023/10/29 09:36:27;;;;;;;6.80;1.25;;;;;;;16.74;61.06;99313.63;5072192;28;20033;-75
2023/10/29 09:38:52;;;;;;;8.50;1.17;;;;;;;16.97;59.76;99316.25;5070268;28;20032;-74
2023/10/29 09:41:18;;;;;;;6.57;1.25;;;;;;;16.80;60.57;99323.94;5072310;28;20047;-75
2023/10/29 09:43:44;;;;;;;7.53;1.20;;;;;;;17.16;59.95;99324.31;5071329;28;20033;-74
2023/10/29 09:46:21;;;;;;;10.05;1.02;;;;;;;16.67;60.58;99314.75;5070250;28;20041;-74
2023/10/29 09:48:47;;;;;;;9.80;1.40;;;;;;;17.11;60.21;99321.00;5071539;28;20029;-74
2023/10/29 09:51:13;;;;;;;9.15;1.50;;;;;;;16.97;60.86;99313.63;5070542;28;20401;-74
2023/10/29 09:53:41;;;;;;;8.20;1.10;;;;;;;17.10;59.94;99314.88;5069772;28;20082;-74
2023/10/29 09:56:12;;;;;;;8.52;1.10;;;;;;;17.12;60.23;99318.34;5069652;28;20043;-75
2023/10/29 09:58:38;;;;;;;8.30;1.58;;;;;;;17.31;60.29;99310.59;5069718;28;20032;-75
2023/10/29 10:01:05;;;;;;;7.60;1.20;;;;;;;17.31;59.55;99306.19;5071778;28;20115;-74
2023/10/29 10:03:33;;;;;;;7.13;1.17;;;;;;;17.37;59.65;99289.28;5070454;28;20036;-75
2023/10/29 10:05:59;;;;;;;7.35;1.20;;;;;;;17.21;59.48;99289.00;5070619;28;20440;-74
2023/10/29 10:08:29;;;;;;;7.88;1.50;;;;;;;17.63;58.96;99281.19;5071313;28;20032;-75
2023/10/29 10:10:56;;;;;;;7.95;1.30;;;;;;;17.29;59.62;99300.09;5070828;28;20032;-74
2023/10/29 10:13:36;;;;;;;10.70;1.52;;;;;;;17.72;59.40;99275.56;5069379;28;20460;-75
2023/10/29 10:16:10;;;;;;;11.82;1.42;;;;;;;17.90;58.39;99286.25;5070737;28;20040;-74
2023/10/29 10:18:51;;;;;;;;;;;;;;;18.09;57.59;99303.91;5071983;28;20501;-74
2023/10/29 10:21:21;;;;;;;8.85;1.45;;;;;;;17.44;59.66;99311.81;5069782;28;19920;-74
2023/10/29 10:23:50;;;;;;;7.25;1.50;;;;;;;17.41;59.49;99311.94;5070467;28;20222;-74
2023/10/29 10:26:26;;;;;;;10.90;1.30;;;;;;;17.67;58.89;99287.22;5070424;28;20040;-75
2023/10/29 10:28:57;;;;;;;5.10;1.23;;;;;;;17.96;57.77;99292.16;5057911;28;20514;-72
2023/10/29 10:31:37;;;;;;;10.18;1.40;;;;;;;17.99;57.54;99304.34;5069327;28;20119;-74
2023/10/29 10:34:18;;;;;;;8.93;1.23;;;;;;;18.39;56.91;99309.66;5069019;28;20563;-74
2023/10/29 10:36:45;;;;;;;10.20;1.65;;;;;;;18.27;56.83;99347.09;5070165;28;20033;-74
2023/10/29 10:39:14;;;;;;;9.25;1.50;;;;;;;17.81;57.46;99362.16;5070357;28;20085;-73
2023/10/29 10:41:49;;;;;;;8.27;1.40;;;;;;;18.12;57.33;99371.47;5068264;28;20059;-75
2023/10/29 10:44:16;;;;;;;9.40;1.60;;;;;;;18.19;57.04;99359.75;5070731;28;20043;-75
2023/10/29 10:46:50;;;;;;;10.15;1.40;;;;;;;17.97;57.46;99359.78;5068785;28;20382;-75
2023/10/29 10:49:26;;;;;;;7.20;1.50;;;;;;;17.84;57.08;99369.09;5071123;28;20051;-75
2023/10/29 10:51:57;;;;;;;7.80;1.45;;;;;;;17.77;57.42;99371.13;5073178;28;20037;-74
2023/10/29 10:54:24;;;;;;;9.70;1.40;;;;;;;17.80;57.07;99378.06;5074840;28;20509;-74
2023/10/29 10:56:52;;;;;;;10.48;1.90;;;;;;;17.79;57.72;99384.25;5073278;28;20584;-73
2023/10/29 10:59:21;;;;;;;13.95;1.65;;;;;;;17.07;59.38;99385.25;5072807;28;20033;-74
2023/10/29 11:01:49;;;;;;;10.77;1.67;;;;;;;17.03;59.24;99374.81;5070572;28;20025;-74
2023/10/29 11:04:15;;;;;;;14.35;1.90;;;;;;;17.12;59.20;99372.78;5069271;28;20094;-74
2023/10/29 11:06:43;;;;;;;6.90;1.55;;;;;;;17.01;60.37;99360.00;5068507;28;20044;-74
2023/10/29 11:09:14;;;;;;;8.02;1.40;;;;;;;17.26;59.37;99354.69;5070755;28;20040;-75
2023/10/29 11:11:51;;;;;;;11.68;1.90;;;;;;;17.57;57.65;99354.34;5068568;28;20037;-73
2023/10/29 11:14:18;;;;;;;14.63;1.80;;;;;;;17.30;58.17;99351.00;5069413;28;20036;-73
2023/10/29 11:16:51;;;;;;;8.23;1.42;;;;;;;17.53;57.98;99352.75;5070199;28;20037;-74
2023/10/29 11:19:44;;;;;;;8.85;1.35;;;;;;;17.84;57.24;99340.09;5069542;28;20052;-74
2023/10/29 11:22:25;;;;;;;11.20;1.65;;;;;;;17.35;58.61;99347.28;5069943;28;20368;-74
2023/10/29 11:25:08;;;;;;;8.35;1.60;;;;;;;17.60;58.05;99344.59;5069546;28;20447;-74
2023/10/29 11:27:48;;;;;;;6.35;1.40;;;;;;;17.91;57.14;99331.03;5070383;28;20396;-73
2023/10/29 11:30:21;;;;;;;11.63;1.77;;;;;;;18.16;56.65;99315.91;5070320;28;20120;-74
2023/10/29 11:33:12;;;;;;;10.68;1.48;;;;;;;18.11;56.67;99303.84;5070226;28;20032;-72